Scottsburg, IN (47170)

11:52 PM EDT on July 23, 2016 (GMT -0400)
Pigeon roost | | Change Station
Active Advisory: Heat Advisory

Elev 607 ft 38.62 °N, 85.77 °W | Updated 1 minute ago

Mostly Cloudy
Mostly Cloudy
77.0 °F
Feels Like 78 °F
N
0.0
Wind Variable Wind from SW

Today
High -- | Low -- °F
--% Chance of Precip.
Yesterday
High -- | Low -- °F
Precip. -- in
Pressure 29.98 in
Visibility 10.0 miles
Clouds Scattered Clouds 4700 ft
Mostly Cloudy 5500 ft
Mostly Cloudy 7000 ft
Heat Index 78 °F
Dew Point 77 °F
Humidity 99%
Rainfall 0.00 in
Snow Depth Not available.
6:37 AM 9:01 PM
Waning Gibbous, 80% visible
METAR KLOU 240253Z AUTO 00000KT 10SM SCT047 BKN055 BKN070 30/23 A3000 RMK AO2 SLP152 T03000228 53021
Pressure 29.98 in
Visibility 10.0 miles
Clouds Scattered Clouds 4700 ft
Mostly Cloudy 5500 ft
Mostly Cloudy 7000 ft
Heat Index 78 °F
Dew Point 77 °F
Humidity 99%
Rainfall 0.00 in
Snow Depth Not available.
6:37 AM 9:01 PM
Waning Gibbous, 80% visible
METAR KLOU 240253Z AUTO 00000KT 10SM SCT047 BKN055 BKN070 30/23 A3000 RMK AO2 SLP152 T03000228 53021

10-Day Weather Forecast

Almanac

Astronomy

Jul. 23, 2016 Rise Set
Actual Time
Civil Twilight
Nautical Twilight
Astronomical Twilight
Moon
Length of Visible Light
Length of Day
Tomorrow will be .
, % of the Moon is Illuminated

Today's Extremes

State Highs State Lows

Community

WunderPhotos

Upload Photos

1,927,022 photos uploaded!

WunderBlog® & News

Nearby

Air Quality

  Air Quality AQ Index Pollutant
Not available.

Snow Depth

Station Depth Elevation

Earthquake Activity

City Distance Mag. Time & Date
Minimum magnitude displayed is 2.5.

Coastal Water Temperatures

Place Temperature

Stations

Nearby Weather Stations

Station Location Temp. Windchill Dew Point Humidity Wind Precip. Elev Updated Type
                   

Watches & Warnings

Heat Advisory
Issued: 7:20 PM CDT Jul. 23, 2016 – National Weather Service

... Heat advisory remains in effect until 8 PM EDT /7 PM CDT/
Sunday...

* temperature... high temperatures Sunday afternoon will warm into
the lower to middle 90s. These temperatures combined with
dewpoints in the lower to middle 70s will produce heat index
readings near 105 degrees.

Precautionary/preparedness actions...

Take extra precautions... if you work or spend time outside. When
possible... reschedule strenuous activities to early morning or
evening. Know the signs and symptoms of heat exhaustion and heat
stroke. Wear light weight and loose fitting clothing when
possible and drink plenty of water.



13